KMSV

Sullivan County International Airport

Monticello, New York, USA
METAR KMSV 210356Z AUTO 26004KT 10SM CLR M02/M04 A3002 RMK AO2 SLP181 T10221039 FZRANO
Observed Flight Rules
Jan-21 @ 03:56 UTC (51 minutes ago) Visual Flight Rules
Wind Visibility Clouds
260° at 4 knots 10 miles
  • Clear skies
Temperatures Readings
Current -2°C / 28°F
Dewpoint -4°C / 25°F
Humidity 86%
Altimeter 30.02" Hg
Pressure 1018.1 hPa
Elevation 428
METAR KMSV 210356Z AUTO 26004KT 10SM CLR M02/M04 A3002 RMK AO2 SLP181 T10221039 FZRANO
Observed Flight Rules
Jan-21 @ 03:56 UTC
(51 minutes ago)
VFR
Wind Visibility
260° at 4 knots 10 miles
Clouds
  • Clear skies
Temperature Dewpoint
-2°C / 28°F -4°C / 25°F
Humidity Altimeter Pressure
86% 30.02" Hg 1018.1 hPa